createdAt,value
2023-01-30T00:00:21.681Z,29.30
2023-01-30T00:01:28.257Z,27.52
2023-01-30T00:02:30.856Z,29.33
2023-01-30T00:03:32.568Z,26.60
2023-01-30T00:04:34.471Z,24.77
2023-01-30T00:05:36.173Z,29.05
2023-01-30T00:06:38.630Z,31.50
2023-01-30T00:07:40.146Z,25.10
2023-01-30T00:08:42.024Z,28.17
2023-01-30T00:09:43.694Z,25.63
2023-01-30T00:10:46.253Z,27.98
2023-01-30T00:11:47.861Z,28.25
2023-01-30T00:12:49.470Z,26.25
2023-01-30T00:13:51.657Z,27.73
2023-01-30T00:14:53.349Z,29.52
2023-01-30T00:15:54.928Z,29.70
2023-01-30T00:16:56.546Z,31.05
2023-01-30T00:17:58.294Z,34.55
2023-01-30T00:18:59.972Z,32.85
2023-01-30T00:20:01.801Z,34.75
2023-01-30T00:21:06.274Z,31.23
2023-01-30T00:22:10.491Z,33.42
2023-01-30T00:23:12.134Z,29.58
2023-01-30T00:24:13.834Z,31.20
2023-01-30T00:25:15.809Z,29.90
2023-01-30T00:26:17.716Z,40.08
2023-01-30T00:27:19.504Z,34.78
2023-01-30T00:28:24.652Z,37.72
2023-01-30T00:29:26.542Z,33.75
2023-01-30T00:30:28.544Z,30.88
2023-01-30T00:31:33.060Z,31.20
2023-01-30T00:32:34.853Z,27.38
2023-01-30T00:33:38.617Z,29.80
2023-01-30T00:34:40.205Z,32.25
2023-01-30T00:35:49.327Z,29.88
2023-01-30T00:36:58.916Z,28.75
2023-01-30T00:38:04.209Z,33.95
2023-01-30T00:39:05.838Z,28.95
2023-01-30T00:40:08.005Z,28.55
2023-01-30T00:41:10.755Z,25.20
2023-01-30T00:42:31.331Z,29.02
2023-01-30T00:43:51.818Z,36.28
2023-01-30T00:45:11.981Z,34.08
2023-01-30T00:47:06.299Z,31.10
2023-01-30T00:48:08.051Z,29.73
2023-01-30T00:49:12.691Z,34.67
2023-01-30T00:50:14.357Z,29.02
2023-01-30T00:51:19.199Z,28.08
2023-01-30T00:52:20.986Z,32.67
2023-01-30T00:53:25.469Z,29.65
2023-01-30T00:54:27.193Z,34.13
2023-01-30T00:55:28.898Z,37.25
2023-01-30T00:56:30.446Z,34.83
2023-01-30T00:57:31.969Z,37.72
2023-01-30T00:58:33.897Z,43.35
2023-01-30T00:59:35.489Z,45.60
2023-01-30T01:00:37.207Z,52.15
2023-01-30T01:01:39.214Z,44.78
2023-01-30T01:02:40.842Z,49.50
2023-01-30T01:03:42.608Z,47.55
2023-01-30T01:04:44.421Z,51.33
2023-01-30T01:05:46.208Z,46.47
2023-01-30T01:06:47.925Z,53.45
2023-01-30T01:07:49.718Z,48.50
2023-01-30T01:08:51.413Z,50.72
2023-01-30T01:09:53.195Z,58.50
2023-01-30T01:10:54.985Z,55.08
2023-01-30T01:11:56.619Z,49.50
2023-01-30T01:12:58.459Z,59.25
2023-01-30T01:14:02.616Z,51.17
2023-01-30T01:15:04.552Z,47.22
2023-01-30T01:16:06.375Z,46.50
2023-01-30T01:17:08.043Z,47.90
2023-01-30T01:18:09.748Z,45.13
2023-01-30T01:19:11.322Z,42.97
2023-01-30T01:20:13.723Z,44.85
2023-01-30T01:21:20.195Z,44.17
2023-01-30T01:22:22.120Z,40.80
2023-01-30T01:23:23.818Z,37.53
2023-01-30T01:24:25.359Z,35.80
2023-01-30T01:25:26.995Z,34.10
2023-01-30T01:26:28.940Z,33.63
2023-01-30T01:27:30.573Z,33.92
2023-01-30T01:28:32.422Z,36.10
2023-01-30T01:29:34.067Z,37.03
2023-01-30T01:30:39.897Z,33.67
2023-01-30T01:31:42.885Z,33.17
2023-01-30T01:32:44.880Z,34.67
2023-01-30T01:33:46.604Z,34.60
2023-01-30T01:34:48.480Z,35.55
2023-01-30T01:35:49.997Z,34.40
2023-01-30T01:36:53.952Z,33.20
2023-01-30T01:37:56.189Z,35.05
2023-01-30T01:38:57.785Z,36.13
2023-01-30T01:40:20.027Z,44.67
2023-01-30T01:41:21.720Z,39.95
2023-01-30T01:42:26.518Z,36.83
2023-01-30T01:43:31.193Z,38.90
2023-01-30T01:45:05.943Z,41.17
2023-01-30T01:46:20.579Z,39.42
2023-01-30T01:47:22.290Z,34.53
2023-01-30T01:48:38.510Z,39.97
2023-01-30T01:49:40.376Z,35.13
2023-01-30T01:50:59.444Z,37.72
2023-01-30T01:52:07.932Z,37.03
2023-01-30T01:53:14.417Z,43.47
2023-01-30T01:54:21.431Z,36.42
2023-01-30T01:55:25.232Z,40.72
2023-01-30T01:56:27.510Z,38.22
2023-01-30T01:57:48.572Z,37.00
2023-01-30T01:58:57.353Z,41.38
2023-01-30T02:00:11.518Z,49.83
2023-01-30T02:01:13.462Z,40.35
2023-01-30T02:02:15.390Z,34.15
2023-01-30T02:03:21.601Z,34.53
2023-01-30T02:04:43.344Z,37.63
2023-01-30T02:05:49.878Z,37.85
2023-01-30T02:06:51.672Z,32.28
2023-01-30T02:08:14.358Z,41.70
2023-01-30T02:09:15.913Z,39.20
2023-01-30T02:10:23.712Z,39.10
2023-01-30T02:11:49.872Z,33.35
2023-01-30T02:12:53.003Z,37.67
2023-01-30T02:13:55.380Z,35.47
2023-01-30T02:14:58.936Z,36.95
2023-01-30T02:16:02.929Z,36.00
2023-01-30T02:17:04.799Z,34.92
2023-01-30T02:18:06.725Z,35.25
2023-01-30T02:19:25.891Z,34.67
2023-01-30T02:20:40.307Z,32.47
2023-01-30T02:22:17.743Z,38.75
2023-01-30T02:23:44.409Z,32.38
2023-01-30T02:25:04.469Z,36.20
2023-01-30T02:26:43.798Z,35.80
2023-01-30T02:28:00.491Z,36.25
2023-01-30T02:29:32.923Z,34.17
2023-01-30T02:31:18.436Z,36.67
2023-01-30T02:32:46.172Z,41.40
2023-01-30T02:34:08.922Z,38.65
2023-01-30T02:35:46.152Z,37.83
2023-01-30T02:36:56.499Z,41.67
2023-01-30T02:38:29.948Z,35.63
2023-01-30T02:40:09.330Z,34.75
2023-01-30T02:41:36.000Z,38.08
2023-01-30T02:43:08.960Z,35.97
2023-01-30T02:44:15.505Z,34.75
2023-01-30T02:45:26.658Z,35.92
2023-01-30T02:46:40.814Z,35.78
2023-01-30T02:47:49.694Z,36.30
2023-01-30T02:49:00.808Z,32.28
2023-01-30T02:50:10.822Z,33.63
2023-01-30T02:51:29.168Z,32.97
2023-01-30T02:52:31.535Z,41.83
2023-01-30T02:53:34.650Z,35.95
2023-01-30T02:54:36.277Z,34.13
2023-01-30T02:55:40.790Z,37.42
2023-01-30T02:56:54.375Z,33.78
2023-01-30T02:57:56.576Z,40.03
2023-01-30T02:59:08.703Z,31.23
2023-01-30T03:00:11.096Z,36.40
2023-01-30T03:01:37.281Z,34.10
2023-01-30T03:03:11.325Z,32.15
2023-01-30T03:04:30.145Z,28.48
2023-01-30T03:06:02.712Z,30.83
2023-01-30T03:07:28.088Z,28.95
2023-01-30T03:08:43.174Z,29.58
2023-01-30T03:10:02.699Z,27.98
2023-01-30T03:11:07.478Z,25.65
2023-01-30T03:12:14.811Z,23.73
2023-01-30T03:13:19.386Z,22.08
2023-01-30T03:14:27.407Z,27.08
2023-01-30T03:15:34.211Z,22.67
2023-01-30T03:16:38.973Z,23.45
2023-01-30T03:17:44.493Z,23.25
2023-01-30T03:18:46.430Z,21.10
2023-01-30T03:19:48.535Z,20.73
2023-01-30T03:20:51.507Z,21.90
2023-01-30T03:21:53.080Z,18.50
2023-01-30T03:22:55.421Z,22.40
2023-01-30T03:23:57.335Z,17.73
2023-01-30T03:24:58.996Z,18.45
2023-01-30T03:26:05.010Z,16.25
2023-01-30T03:27:10.733Z,19.02
2023-01-30T03:28:14.111Z,17.98
2023-01-30T03:29:16.456Z,17.45
2023-01-30T03:30:18.424Z,17.30
2023-01-30T03:31:20.154Z,15.02
2023-01-30T03:32:21.819Z,17.75
2023-01-30T03:33:23.424Z,15.98
2023-01-30T03:34:25.120Z,15.20
2023-01-30T03:35:26.899Z,16.08
2023-01-30T03:36:28.568Z,17.33
2023-01-30T03:37:30.585Z,16.35
2023-01-30T03:38:32.213Z,16.02
2023-01-30T03:39:34.295Z,15.00
2023-01-30T03:40:38.848Z,14.38
2023-01-30T03:41:40.663Z,19.58
2023-01-30T03:42:42.585Z,16.52
2023-01-30T03:43:44.249Z,13.20
2023-01-30T03:44:46.105Z,16.08
2023-01-30T03:45:47.879Z,15.55
2023-01-30T03:46:51.759Z,12.77
2023-01-30T03:47:53.449Z,14.65
2023-01-30T03:48:55.140Z,14.55
2023-01-30T03:49:56.751Z,15.02
2023-01-30T03:50:58.478Z,14.18
2023-01-30T03:52:00.059Z,12.68
2023-01-30T03:53:01.675Z,17.42
2023-01-30T03:54:03.439Z,14.25
2023-01-30T03:55:05.419Z,16.15
2023-01-30T03:56:07.084Z,14.50
2023-01-30T03:57:08.745Z,20.50
2023-01-30T03:58:10.399Z,13.85
2023-01-30T03:59:12.168Z,11.98
2023-01-30T04:00:14.391Z,12.15
2023-01-30T04:01:16.138Z,13.82
2023-01-30T04:02:22.469Z,13.75
2023-01-30T04:03:24.724Z,10.90
2023-01-30T04:04:26.434Z,11.27
2023-01-30T04:05:28.010Z,10.07
2023-01-30T04:06:29.655Z,10.07
2023-01-30T04:07:31.467Z,12.38
2023-01-30T04:08:33.128Z,9.18
2023-01-30T04:09:34.679Z,10.68
2023-01-30T04:10:36.301Z,10.15
2023-01-30T04:11:38.679Z,13.60
2023-01-30T04:12:40.304Z,10.30
2023-01-30T04:13:41.929Z,12.10
2023-01-30T04:14:43.512Z,12.60
2023-01-30T04:15:45.173Z,12.23
2023-01-30T04:16:46.963Z,18.00
2023-01-30T04:17:48.735Z,16.90
2023-01-30T04:18:51.039Z,16.45
2023-01-30T04:19:52.601Z,17.10
2023-01-30T04:20:54.269Z,16.65
2023-01-30T04:21:55.879Z,24.08
2023-01-30T04:22:57.604Z,23.70
2023-01-30T04:23:59.296Z,22.75
2023-01-30T04:25:00.987Z,20.52
2023-01-30T04:26:02.616Z,16.13
2023-01-30T04:27:04.200Z,12.48
2023-01-30T04:28:05.862Z,13.27
2023-01-30T04:29:07.636Z,16.10
2023-01-30T04:30:10.048Z,14.23
2023-01-30T04:31:11.937Z,14.13
2023-01-30T04:32:13.759Z,15.60
2023-01-30T04:33:15.355Z,13.40
2023-01-30T04:34:19.623Z,16.23
2023-01-30T04:35:21.567Z,16.63
2023-01-30T04:36:23.214Z,14.40
2023-01-30T04:37:24.971Z,17.92
2023-01-30T04:38:27.844Z,15.90
2023-01-30T04:39:29.612Z,15.13
2023-01-30T04:40:31.221Z,12.23
2023-01-30T04:41:33.100Z,13.23
2023-01-30T04:42:34.680Z,13.52
2023-01-30T04:43:36.386Z,12.45
2023-01-30T04:44:37.959Z,11.85
2023-01-30T04:45:43.696Z,11.68
2023-01-30T04:46:45.427Z,12.70
2023-01-30T04:47:47.006Z,11.80
2023-01-30T04:48:48.614Z,15.77
2023-01-30T04:49:50.229Z,11.40
2023-01-30T04:50:54.278Z,11.55
2023-01-30T04:51:55.841Z,12.13
2023-01-30T04:52:57.512Z,12.82
2023-01-30T04:53:59.196Z,14.73
2023-01-30T04:55:00.901Z,15.00
2023-01-30T04:56:02.690Z,11.57
2023-01-30T04:57:04.436Z,14.10
2023-01-30T04:58:06.095Z,13.35
2023-01-30T04:59:07.811Z,14.10
2023-01-30T05:00:10.063Z,12.07
2023-01-30T05:01:24.973Z,10.32
2023-01-30T05:02:26.598Z,9.52
2023-01-30T05:03:28.273Z,9.63
2023-01-30T05:04:29.823Z,9.73
2023-01-30T05:05:31.432Z,7.65
2023-01-30T05:06:34.275Z,9.05
2023-01-30T05:07:36.194Z,8.50
2023-01-30T05:08:37.853Z,9.30
2023-01-30T05:09:39.518Z,9.05
2023-01-30T05:10:41.387Z,8.98
2023-01-30T05:11:44.013Z,12.00
2023-01-30T05:12:46.192Z,10.50
2023-01-30T05:13:48.268Z,9.68
2023-01-30T05:14:49.852Z,9.35
2023-01-30T05:15:51.561Z,8.73
2023-01-30T05:16:53.215Z,8.43
2023-01-30T05:17:54.892Z,9.43
2023-01-30T05:18:56.505Z,13.32
2023-01-30T05:19:58.255Z,42.05
2023-01-30T05:21:04.713Z,15.48
2023-01-30T05:22:06.330Z,12.38
2023-01-30T05:23:07.849Z,10.80
2023-01-30T05:24:09.560Z,16.00
2023-01-30T05:25:11.319Z,9.13
2023-01-30T05:26:13.751Z,8.98
2023-01-30T05:27:15.595Z,9.88
2023-01-30T05:28:17.145Z,8.88
2023-01-30T05:29:18.850Z,8.80
2023-01-30T05:30:20.608Z,10.63
2023-01-30T05:31:22.990Z,9.70
2023-01-30T05:32:25.692Z,8.45
2023-01-30T05:33:27.446Z,9.05
2023-01-30T05:34:28.937Z,10.68
2023-01-30T05:35:30.533Z,15.80
2023-01-30T05:36:32.099Z,9.57
2023-01-30T05:37:33.680Z,8.77
2023-01-30T05:38:35.220Z,7.90
2023-01-30T05:39:37.091Z,8.82
2023-01-30T05:40:38.719Z,8.85
2023-01-30T05:41:40.387Z,7.75
2023-01-30T05:42:42.010Z,9.80
2023-01-30T05:43:44.207Z,9.05
2023-01-30T05:44:46.170Z,9.15
2023-01-30T05:45:53.591Z,7.80
2023-01-30T05:46:55.296Z,36.05
2023-01-30T05:48:01.290Z,54.33
2023-01-30T05:49:04.317Z,37.15
2023-01-30T05:50:06.219Z,18.75
2023-01-30T05:51:19.327Z,17.83
2023-01-30T05:52:21.787Z,20.25
2023-01-30T05:53:26.535Z,11.52
2023-01-30T05:54:28.218Z,11.98
2023-01-30T05:55:29.951Z,11.65
2023-01-30T05:56:33.365Z,9.90
2023-01-30T05:57:34.995Z,10.50
2023-01-30T05:58:36.749Z,10.80
2023-01-30T05:59:38.324Z,9.32
2023-01-30T06:00:40.068Z,8.15
2023-01-30T06:01:41.750Z,7.22
2023-01-30T06:02:43.385Z,7.50
2023-01-30T06:03:45.536Z,7.25
2023-01-30T06:04:47.212Z,7.45
2023-01-30T06:05:48.864Z,6.75
2023-01-30T06:06:51.796Z,6.60
2023-01-30T06:07:53.567Z,6.80
2023-01-30T06:08:56.380Z,6.35
2023-01-30T06:09:58.024Z,8.77
2023-01-30T06:11:01.527Z,6.82
2023-01-30T06:12:03.360Z,8.18
2023-01-30T06:13:05.082Z,7.70
2023-01-30T06:14:06.750Z,6.20
2023-01-30T06:15:09.300Z,6.20
2023-01-30T06:16:13.060Z,6.07
2023-01-30T06:17:15.011Z,6.07
2023-01-30T06:18:16.868Z,6.28
2023-01-30T06:19:18.525Z,6.10
2023-01-30T06:20:20.620Z,6.25
2023-01-30T06:21:22.243Z,6.65
2023-01-30T06:22:24.009Z,6.35
2023-01-30T06:23:28.848Z,5.78
2023-01-30T06:24:31.629Z,7.00
2023-01-30T06:25:33.242Z,7.05
2023-01-30T06:26:35.587Z,6.93
2023-01-30T06:27:38.218Z,6.10
2023-01-30T06:28:39.913Z,6.25
2023-01-30T06:29:41.629Z,5.43
2023-01-30T06:30:46.663Z,5.88
2023-01-30T06:31:48.310Z,5.00
2023-01-30T06:32:51.983Z,6.60
2023-01-30T06:33:54.225Z,6.50
2023-01-30T06:34:55.879Z,6.38
2023-01-30T06:35:57.498Z,6.43
2023-01-30T06:36:59.172Z,6.63
2023-01-30T06:38:00.801Z,6.05
2023-01-30T06:39:02.449Z,9.02
2023-01-30T06:40:05.759Z,7.72
2023-01-30T06:41:07.887Z,41.47
2023-01-30T06:42:13.256Z,18.95
2023-01-30T06:43:18.182Z,16.00
2023-01-30T06:44:24.205Z,11.13
2023-01-30T06:45:26.083Z,8.90
2023-01-30T06:46:27.868Z,8.85
2023-01-30T06:47:29.433Z,7.55
2023-01-30T06:48:31.074Z,6.80
2023-01-30T06:49:32.678Z,6.43
2023-01-30T06:50:35.272Z,6.00
2023-01-30T06:51:36.945Z,5.78
2023-01-30T06:52:44.820Z,6.68
2023-01-30T06:53:46.526Z,5.60
2023-01-30T06:54:48.140Z,5.85
2023-01-30T06:55:49.761Z,5.63
2023-01-30T06:56:51.463Z,6.22
2023-01-30T06:58:13.760Z,6.30
2023-01-30T06:59:18.042Z,5.80
2023-01-30T07:00:20.807Z,7.80
2023-01-30T07:01:22.391Z,7.15
2023-01-30T07:02:24.002Z,5.90
2023-01-30T07:03:25.580Z,6.03
2023-01-30T07:04:27.448Z,6.82
2023-01-30T07:05:29.339Z,6.13
2023-01-30T07:06:31.423Z,5.90
2023-01-30T07:07:33.994Z,5.88
2023-01-30T07:08:35.655Z,6.07
2023-01-30T07:09:37.429Z,5.38
2023-01-30T07:10:39.656Z,5.20
2023-01-30T07:11:41.361Z,5.05
2023-01-30T07:12:43.001Z,4.82
2023-01-30T07:13:44.881Z,5.43
2023-01-30T07:14:46.708Z,4.63
2023-01-30T07:15:48.650Z,5.07
2023-01-30T07:16:50.439Z,5.07
2023-01-30T07:17:52.148Z,5.25
2023-01-30T07:18:57.348Z,5.35
2023-01-30T07:19:59.386Z,5.10
2023-01-30T07:21:01.067Z,4.65
2023-01-30T07:22:03.435Z,6.38
2023-01-30T07:23:05.130Z,7.13
2023-01-30T07:24:07.449Z,5.70
2023-01-30T07:25:09.331Z,4.80
2023-01-30T07:26:11.019Z,4.85
2023-01-30T07:27:13.515Z,4.75
2023-01-30T07:28:15.147Z,4.30
2023-01-30T07:29:16.943Z,4.90
2023-01-30T07:30:19.155Z,7.32
2023-01-30T07:31:20.753Z,5.35
2023-01-30T07:32:22.792Z,3.70
2023-01-30T07:33:24.428Z,6.75
2023-01-30T07:34:26.123Z,4.13
2023-01-30T07:35:31.332Z,4.97
2023-01-30T07:36:34.734Z,6.38
2023-01-30T07:37:36.449Z,5.32
2023-01-30T07:38:38.229Z,5.53
2023-01-30T07:39:39.824Z,7.88
2023-01-30T07:40:41.498Z,5.57
2023-01-30T07:41:43.214Z,6.10
2023-01-30T07:42:45.082Z,5.38
2023-01-30T07:43:48.848Z,4.22
2023-01-30T07:44:50.611Z,5.15
2023-01-30T07:45:52.456Z,4.78
2023-01-30T07:46:54.181Z,7.43
2023-01-30T07:47:55.790Z,6.35
2023-01-30T07:48:59.603Z,4.97
2023-01-30T07:50:01.762Z,4.57
2023-01-30T07:51:03.477Z,4.68
2023-01-30T07:52:05.420Z,4.95
2023-01-30T07:53:10.267Z,4.95
2023-01-30T07:54:11.935Z,6.95
2023-01-30T07:55:13.727Z,4.80
2023-01-30T07:56:18.726Z,5.03
2023-01-30T07:57:21.436Z,5.32
2023-01-30T07:58:23.172Z,4.45
2023-01-30T07:59:24.993Z,4.60
2023-01-30T08:00:27.115Z,4.90
2023-01-30T08:01:29.192Z,7.32
2023-01-30T08:02:30.946Z,6.10
2023-01-30T08:03:32.680Z,6.57
2023-01-30T08:04:34.435Z,4.63
2023-01-30T08:05:36.089Z,4.85
2023-01-30T08:06:39.741Z,5.43
2023-01-30T08:07:41.482Z,4.90
2023-01-30T08:08:43.573Z,5.72
2023-01-30T08:09:45.493Z,8.93
2023-01-30T08:10:50.430Z,21.70
2023-01-30T08:11:52.255Z,41.75
2023-01-30T08:12:54.105Z,14.77
2023-01-30T08:13:55.929Z,12.02
2023-01-30T08:14:57.614Z,7.55
2023-01-30T08:16:00.655Z,8.93
2023-01-30T08:17:02.419Z,5.30
2023-01-30T08:18:04.028Z,6.30
2023-01-30T08:19:06.426Z,25.98
2023-01-30T08:20:08.994Z,11.10
2023-01-30T08:21:11.772Z,6.55
2023-01-30T08:22:14.476Z,5.95
2023-01-30T08:23:16.093Z,5.75
2023-01-30T08:24:17.795Z,3.92
2023-01-30T08:25:20.276Z,5.25
2023-01-30T08:26:22.346Z,5.82
2023-01-30T08:27:24.198Z,4.93
2023-01-30T08:28:26.509Z,5.30
2023-01-30T08:29:28.305Z,5.82
2023-01-30T08:30:30.976Z,5.40
2023-01-30T08:31:32.659Z,5.15
2023-01-30T08:32:34.376Z,5.35
2023-01-30T08:33:35.947Z,4.47
2023-01-30T08:34:37.638Z,4.97
2023-01-30T08:35:40.279Z,5.40
2023-01-30T08:36:41.914Z,5.25
2023-01-30T08:37:47.060Z,7.82
2023-01-30T08:38:49.047Z,5.65
2023-01-30T08:39:50.758Z,5.68
2023-01-30T08:40:53.630Z,7.75
2023-01-30T08:41:55.340Z,4.70
2023-01-30T08:42:56.965Z,4.85
2023-01-30T08:43:58.668Z,5.30
2023-01-30T08:45:00.384Z,5.85
2023-01-30T08:46:02.561Z,6.00
2023-01-30T08:47:04.259Z,5.35
2023-01-30T08:48:07.103Z,5.00
2023-01-30T08:49:08.801Z,4.20
2023-01-30T08:50:11.285Z,4.80
2023-01-30T08:51:12.935Z,5.28
2023-01-30T08:52:14.805Z,4.53
2023-01-30T08:53:16.622Z,5.82
2023-01-30T08:54:18.436Z,4.20
2023-01-30T08:55:21.252Z,4.40
2023-01-30T08:56:23.107Z,4.20
2023-01-30T08:57:24.991Z,4.63
2023-01-30T08:58:26.833Z,5.63
2023-01-30T08:59:28.424Z,6.57
2023-01-30T09:00:30.532Z,5.15
2023-01-30T09:01:32.354Z,5.10
2023-01-30T09:02:34.233Z,5.20
2023-01-30T09:03:36.160Z,4.10
2023-01-30T09:04:39.110Z,6.60
2023-01-30T09:05:40.912Z,5.25
2023-01-30T09:06:43.045Z,5.47
2023-01-30T09:07:45.592Z,4.75
2023-01-30T09:08:47.445Z,6.57
2023-01-30T09:09:49.025Z,10.75
2023-01-30T09:10:50.941Z,5.63
2023-01-30T09:11:52.675Z,4.72
2023-01-30T09:12:54.587Z,5.40
2023-01-30T09:13:56.391Z,4.65
2023-01-30T09:14:58.568Z,5.75
2023-01-30T09:16:00.243Z,5.03
2023-01-30T09:17:01.969Z,8.40
2023-01-30T09:18:05.071Z,7.05
2023-01-30T09:19:06.627Z,7.22
2023-01-30T09:20:10.079Z,5.47
2023-01-30T09:21:13.541Z,4.70
2023-01-30T09:22:16.560Z,5.35
2023-01-30T09:23:18.281Z,4.65
2023-01-30T09:24:20.842Z,6.10
2023-01-30T09:25:22.520Z,6.35
2023-01-30T09:26:24.495Z,7.28
2023-01-30T09:27:26.642Z,6.28
2023-01-30T09:28:31.077Z,6.13
2023-01-30T09:29:32.991Z,5.70
2023-01-30T09:30:35.078Z,5.43
2023-01-30T09:31:37.071Z,5.55
2023-01-30T09:32:39.141Z,4.65
2023-01-30T09:33:40.929Z,4.63
2023-01-30T09:34:43.007Z,5.35
2023-01-30T09:35:48.091Z,5.28
2023-01-30T09:36:49.725Z,4.53
2023-01-30T09:37:53.577Z,5.63
2023-01-30T09:38:55.339Z,5.60
2023-01-30T09:39:56.913Z,5.60
2023-01-30T09:41:07.773Z,5.50
2023-01-30T09:42:24.117Z,7.20
2023-01-30T09:43:57.701Z,5.00
2023-01-30T09:45:20.937Z,5.07
2023-01-30T09:46:37.788Z,5.13
2023-01-30T09:47:52.500Z,5.05
2023-01-30T09:49:20.068Z,4.63
2023-01-30T09:50:21.886Z,5.65
2023-01-30T09:51:32.019Z,5.30
2023-01-30T09:52:57.652Z,5.10
2023-01-30T09:54:15.455Z,5.72
2023-01-30T09:55:27.189Z,4.65
2023-01-30T09:56:29.468Z,5.13
2023-01-30T09:57:31.184Z,4.93
2023-01-30T09:59:03.081Z,4.15
2023-01-30T10:00:23.271Z,4.55
2023-01-30T10:01:39.468Z,8.82
2023-01-30T10:02:50.172Z,4.53
2023-01-30T10:04:16.209Z,5.63
2023-01-30T10:05:18.950Z,5.50
2023-01-30T10:06:20.831Z,6.72
2023-01-30T10:07:36.872Z,4.75
2023-01-30T10:08:50.408Z,5.78
2023-01-30T10:09:59.900Z,4.80
2023-01-30T10:11:11.927Z,6.55
2023-01-30T10:12:19.824Z,6.30
2023-01-30T10:13:28.049Z,6.35
2023-01-30T10:14:32.587Z,3.90
2023-01-30T10:15:52.517Z,4.38
2023-01-30T10:17:05.902Z,5.28
2023-01-30T10:18:36.844Z,5.43
2023-01-30T10:20:14.320Z,4.07
2023-01-30T10:21:25.550Z,4.43
2023-01-30T10:22:54.097Z,5.35
2023-01-30T10:24:01.702Z,5.40
2023-01-30T10:25:20.216Z,5.00
2023-01-30T10:26:26.530Z,6.05
2023-01-30T10:27:31.064Z,6.50
2023-01-30T10:28:39.269Z,5.43
2023-01-30T10:29:50.049Z,5.65
2023-01-30T10:30:56.683Z,5.68
2023-01-30T10:32:12.455Z,7.50
2023-01-30T10:33:45.223Z,5.22
2023-01-30T10:34:52.968Z,7.38
2023-01-30T10:36:11.065Z,6.57
2023-01-30T10:37:24.577Z,5.80
2023-01-30T10:38:50.731Z,5.97
2023-01-30T10:40:04.897Z,5.47
2023-01-30T10:41:12.161Z,6.47
2023-01-30T10:42:38.873Z,6.28
2023-01-30T10:43:48.309Z,7.15
2023-01-30T10:44:50.299Z,5.53
2023-01-30T10:46:10.144Z,6.57
2023-01-30T10:47:47.323Z,7.22
2023-01-30T10:48:59.798Z,7.90
2023-01-30T10:50:17.328Z,5.80
2023-01-30T10:51:42.683Z,5.95
2023-01-30T10:53:06.274Z,5.78
2023-01-30T10:54:19.764Z,6.80
2023-01-30T10:55:44.943Z,5.53
2023-01-30T10:56:52.287Z,6.05
2023-01-30T10:58:29.293Z,5.43
2023-01-30T10:59:45.486Z,5.10
2023-01-30T11:00:53.143Z,5.65
2023-01-30T11:02:02.917Z,10.35
2023-01-30T11:03:15.373Z,5.70
2023-01-30T11:04:20.190Z,5.15
2023-01-30T11:05:25.830Z,6.47
2023-01-30T11:06:27.930Z,5.57
2023-01-30T11:07:34.054Z,5.85
2023-01-30T11:08:37.164Z,5.97
2023-01-30T11:09:47.336Z,5.15
2023-01-30T11:10:51.152Z,5.28
2023-01-30T11:11:54.801Z,5.22
2023-01-30T11:13:11.594Z,5.70
2023-01-30T11:14:13.928Z,5.03
2023-01-30T11:15:16.504Z,4.20
2023-01-30T11:16:18.854Z,5.70
2023-01-30T11:17:32.665Z,5.93
2023-01-30T11:20:20.013Z,5.32
2023-01-30T11:21:43.084Z,6.13
2023-01-30T11:23:04.873Z,5.75
2023-01-30T11:24:17.214Z,5.95
2023-01-30T11:25:22.787Z,6.38
2023-01-30T11:26:41.525Z,5.50
2023-01-30T11:28:02.296Z,6.55
2023-01-30T11:29:29.387Z,5.70
2023-01-30T11:30:37.961Z,5.90
2023-01-30T11:31:42.047Z,6.72
2023-01-30T11:32:47.459Z,5.30
2023-01-30T11:34:12.878Z,5.45
2023-01-30T11:35:14.730Z,6.60
2023-01-30T11:36:37.920Z,6.82
2023-01-30T11:37:41.704Z,9.55
2023-01-30T11:38:58.701Z,6.57
2023-01-30T11:40:26.425Z,7.55
2023-01-30T11:41:28.790Z,7.10
2023-01-30T11:42:32.087Z,5.90
2023-01-30T11:43:37.873Z,5.88
2023-01-30T11:44:42.876Z,7.70
2023-01-30T11:45:50.475Z,6.45
2023-01-30T11:46:52.440Z,11.35
2023-01-30T11:47:58.327Z,12.10
2023-01-30T11:49:48.145Z,5.45
2023-01-30T11:51:02.313Z,5.70
2023-01-30T11:52:06.359Z,5.20
2023-01-30T11:53:21.599Z,5.50
2023-01-30T11:54:33.590Z,11.25
2023-01-30T11:55:39.660Z,6.70
2023-01-30T11:56:55.988Z,6.55
2023-01-30T11:57:59.209Z,6.05
2023-01-30T11:59:16.443Z,7.40
2023-01-30T12:00:25.424Z,8.77
2023-01-30T12:01:30.021Z,6.15
2023-01-30T12:02:54.519Z,5.88
2023-01-30T12:03:58.923Z,36.85
2023-01-30T12:05:06.659Z,5.55
2023-01-30T12:06:08.303Z,4.55
2023-01-30T12:07:37.223Z,6.85
2023-01-30T12:08:43.028Z,5.72
2023-01-30T12:09:52.606Z,6.13
2023-01-30T12:11:31.142Z,6.63
2023-01-30T12:12:52.512Z,5.60
2023-01-30T12:14:04.672Z,6.75
2023-01-30T12:15:31.173Z,5.45
2023-01-30T12:17:05.715Z,5.63
2023-01-30T12:18:31.626Z,7.55
2023-01-30T12:19:41.760Z,6.35
2023-01-30T12:20:55.060Z,7.95
2023-01-30T12:22:26.855Z,7.70
2023-01-30T12:23:42.590Z,6.30
2023-01-30T12:24:53.377Z,6.32
2023-01-30T12:26:34.130Z,7.55
2023-01-30T12:28:06.976Z,6.28
2023-01-30T12:29:34.266Z,7.30
2023-01-30T12:31:13.668Z,6.32
2023-01-30T12:32:22.363Z,9.57
2023-01-30T12:33:42.901Z,6.75
2023-01-30T12:34:52.516Z,7.03
2023-01-30T12:36:25.694Z,9.60
2023-01-30T12:38:10.651Z,7.25
2023-01-30T12:39:32.142Z,8.70
2023-01-30T12:41:12.906Z,7.63
2023-01-30T12:42:39.375Z,8.30
2023-01-30T12:44:04.368Z,9.73
2023-01-30T12:45:09.315Z,9.48
2023-01-30T12:46:23.718Z,11.13
2023-01-30T12:47:34.671Z,8.52
2023-01-30T12:49:07.952Z,10.85
2023-01-30T12:50:38.107Z,13.90
2023-01-30T12:52:09.012Z,9.65
2023-01-30T12:53:30.806Z,9.35
2023-01-30T12:54:47.907Z,11.35
2023-01-30T12:56:10.955Z,9.82
2023-01-30T12:57:24.255Z,7.85
2023-01-30T12:58:38.477Z,12.98
2023-01-30T12:59:51.793Z,11.38
2023-01-30T13:01:35.505Z,12.85
2023-01-30T13:02:56.281Z,12.75
2023-01-30T13:04:08.146Z,11.40
2023-01-30T13:05:35.379Z,11.20
2023-01-30T13:06:58.075Z,10.38
2023-01-30T13:08:15.196Z,9.75
2023-01-30T13:09:37.137Z,11.80
2023-01-30T13:10:48.956Z,10.77
2023-01-30T13:12:50.188Z,12.10
2023-01-30T13:14:08.763Z,17.25
2023-01-30T13:15:28.436Z,23.77
2023-01-30T13:17:00.689Z,16.10
2023-01-30T13:18:15.800Z,13.70
2023-01-30T13:19:23.094Z,12.85
2023-01-30T13:20:50.256Z,16.08
2023-01-30T13:22:06.263Z,14.73
2023-01-30T13:23:23.733Z,11.07
2023-01-30T13:24:51.006Z,12.57
2023-01-30T13:26:05.342Z,14.93
2023-01-30T13:27:15.483Z,12.82
2023-01-30T13:28:34.867Z,14.63
2023-01-30T13:29:40.734Z,14.80
2023-01-30T13:30:47.840Z,16.55
2023-01-30T13:31:55.064Z,15.88
2023-01-30T13:33:13.348Z,14.40
2023-01-30T13:34:26.937Z,11.35
2023-01-30T13:35:56.015Z,13.75
2023-01-30T13:37:15.071Z,13.95
2023-01-30T13:38:29.439Z,15.45
2023-01-30T13:39:42.508Z,17.83
2023-01-30T13:40:48.922Z,18.13
2023-01-30T13:41:56.654Z,14.95
2023-01-30T13:43:04.954Z,13.35
2023-01-30T13:44:24.851Z,16.45
2023-01-30T13:45:30.581Z,15.07
2023-01-30T13:46:33.527Z,17.75
2023-01-30T13:47:40.156Z,15.70
2023-01-30T13:49:07.824Z,17.75
2023-01-30T13:50:12.459Z,15.20
2023-01-30T13:51:48.013Z,17.08
2023-01-30T13:52:56.561Z,16.95
2023-01-30T13:54:36.864Z,16.10
2023-01-30T13:55:41.279Z,17.38
2023-01-30T13:57:01.633Z,21.15
2023-01-30T13:58:25.234Z,16.55
2023-01-30T13:59:35.828Z,18.42
2023-01-30T14:00:37.687Z,19.48
2023-01-30T14:02:04.431Z,20.40
2023-01-30T14:03:08.992Z,17.33
2023-01-30T14:04:42.297Z,18.60
2023-01-30T14:06:08.843Z,18.13
2023-01-30T14:07:21.946Z,22.27
2023-01-30T14:08:27.006Z,20.67
2023-01-30T14:09:33.331Z,21.75
2023-01-30T14:10:39.161Z,21.73
2023-01-30T14:12:03.212Z,21.08
2023-01-30T14:13:27.435Z,21.88
2023-01-30T14:14:41.208Z,27.17
2023-01-30T14:15:53.360Z,23.90
2023-01-30T14:17:21.574Z,23.88
2023-01-30T14:18:25.090Z,20.30
2023-01-30T14:19:44.592Z,22.85
2023-01-30T14:20:50.810Z,21.10
2023-01-30T14:22:06.600Z,23.50
2023-01-30T14:23:33.194Z,20.25
2023-01-30T14:24:40.452Z,22.50
2023-01-30T14:26:12.250Z,20.67
2023-01-30T14:27:32.099Z,17.98
2023-01-30T14:28:55.850Z,18.88
2023-01-30T14:30:23.514Z,20.92
2023-01-30T14:31:51.037Z,19.95
2023-01-30T14:33:02.524Z,23.67
2023-01-30T14:34:43.470Z,23.67
2023-01-30T14:35:47.039Z,16.60
2023-01-30T14:36:49.748Z,18.92
2023-01-30T14:38:04.811Z,21.85
2023-01-30T14:39:41.450Z,25.15
2023-01-30T14:41:03.353Z,25.42
2023-01-30T14:42:25.168Z,19.48
2023-01-30T14:43:37.727Z,19.13
2023-01-30T14:45:04.975Z,23.00
2023-01-30T14:46:15.658Z,28.50
2023-01-30T14:47:35.486Z,20.63
2023-01-30T14:48:48.370Z,21.35
2023-01-30T14:49:50.691Z,26.73
2023-01-30T14:51:11.402Z,19.10
2023-01-30T14:52:40.423Z,21.17